createdAt,value
2023-04-04T00:01:07.852Z,1.70
2023-04-04T00:03:36.149Z,2.10
2023-04-04T00:06:04.379Z,1.85
2023-04-04T00:08:32.503Z,1.60
2023-04-04T00:11:01.476Z,2.03
2023-04-04T00:13:30.208Z,2.13
2023-04-04T00:15:58.963Z,2.20
2023-04-04T00:18:28.456Z,2.42
2023-04-04T00:20:56.895Z,2.05
2023-04-04T00:23:25.070Z,1.90
2023-04-04T00:25:53.782Z,1.50
2023-04-04T00:28:22.324Z,2.22
2023-04-04T00:30:50.505Z,1.95
2023-04-04T00:33:18.841Z,1.98
2023-04-04T00:35:49.762Z,2.42
2023-04-04T00:38:18.270Z,2.10
2023-04-04T00:40:49.698Z,2.97
2023-04-04T00:43:19.493Z,2.03
2023-04-04T00:45:48.360Z,2.28
2023-04-04T00:48:16.523Z,2.08
2023-04-04T00:50:44.723Z,2.40
2023-04-04T00:53:14.708Z,2.67
2023-04-04T00:55:43.889Z,2.20
2023-04-04T00:58:13.000Z,2.22
2023-04-04T01:00:41.485Z,2.20
2023-04-04T01:03:12.926Z,2.55
2023-04-04T01:05:42.519Z,3.10
2023-04-04T01:08:10.913Z,2.47
2023-04-04T01:10:41.110Z,2.60
2023-04-04T01:13:10.033Z,2.28
2023-04-04T01:15:38.165Z,2.40
2023-04-04T01:18:07.711Z,2.63
2023-04-04T01:20:41.855Z,2.05
2023-04-04T01:23:12.852Z,2.25
2023-04-04T01:25:42.858Z,2.17
2023-04-04T01:28:15.885Z,2.20
2023-04-04T01:30:46.582Z,2.30
2023-04-04T01:33:20.550Z,1.80
2023-04-04T01:35:54.937Z,2.05
2023-04-04T01:38:28.684Z,2.70
2023-04-04T01:41:03.869Z,2.35
2023-04-04T01:43:34.305Z,1.60
2023-04-04T01:46:04.498Z,2.13
2023-04-04T01:48:33.277Z,2.22
2023-04-04T01:51:06.349Z,2.50
2023-04-04T01:53:35.033Z,2.20
2023-04-04T01:56:05.108Z,2.20
2023-04-04T01:58:35.635Z,2.10
2023-04-04T02:01:04.020Z,2.28
2023-04-04T02:03:32.129Z,2.40
2023-04-04T02:06:00.202Z,2.25
2023-04-04T02:08:29.166Z,2.53
2023-04-04T02:10:59.672Z,2.40
2023-04-04T02:13:29.919Z,2.08
2023-04-04T02:16:00.210Z,2.20
2023-04-04T02:18:28.520Z,2.20
2023-04-04T02:20:57.870Z,1.75
2023-04-04T02:23:26.268Z,2.35
2023-04-04T02:25:54.441Z,2.58
2023-04-04T02:28:22.832Z,2.30
2023-04-04T02:30:52.337Z,2.92
2023-04-04T02:33:21.062Z,2.47
2023-04-04T02:35:50.545Z,2.75
2023-04-04T02:38:19.378Z,2.33
2023-04-04T02:40:48.681Z,3.03
2023-04-04T02:43:17.064Z,2.15
2023-04-04T02:45:46.724Z,3.25
2023-04-04T02:48:25.903Z,3.10
2023-04-04T02:50:57.941Z,2.53
2023-04-04T02:53:26.129Z,2.25
2023-04-04T02:55:56.790Z,2.63
2023-04-04T02:58:25.180Z,3.20
2023-04-04T03:00:56.771Z,2.60
2023-04-04T03:03:31.553Z,3.10
2023-04-04T03:06:00.102Z,2.30
2023-04-04T03:08:29.028Z,2.83
2023-04-04T03:10:59.803Z,2.90
2023-04-04T03:13:28.570Z,2.80
2023-04-04T03:16:02.772Z,3.35
2023-04-04T03:18:36.566Z,3.35
2023-04-04T03:21:05.117Z,2.97
2023-04-04T03:23:33.362Z,3.15
2023-04-04T03:26:02.228Z,4.35
2023-04-04T03:28:30.711Z,2.65
2023-04-04T03:31:06.353Z,2.90
2023-04-04T03:33:39.074Z,2.63
2023-04-04T03:36:12.031Z,2.70
2023-04-04T03:38:40.553Z,3.00
2023-04-04T03:41:11.253Z,2.42
2023-04-04T03:43:39.429Z,2.40
2023-04-04T03:46:08.436Z,2.00
2023-04-04T03:48:38.447Z,2.60
2023-04-04T03:51:09.606Z,2.25
2023-04-04T03:53:38.987Z,4.40
2023-04-04T03:56:07.531Z,5.55
2023-04-04T03:58:37.612Z,4.40
2023-04-04T04:01:05.832Z,3.70
2023-04-04T04:03:34.138Z,3.95
2023-04-04T04:06:04.230Z,2.78
2023-04-04T04:08:32.545Z,3.03
2023-04-04T04:11:05.465Z,2.53
2023-04-04T04:13:34.987Z,2.72
2023-04-04T04:16:04.624Z,2.78
2023-04-04T04:18:33.711Z,2.45
2023-04-04T04:21:04.000Z,2.60
2023-04-04T04:23:34.360Z,2.90
2023-04-04T04:26:03.230Z,2.83
2023-04-04T04:28:33.488Z,2.63
2023-04-04T04:31:07.391Z,2.90
2023-04-04T04:33:40.330Z,4.40
2023-04-04T04:36:09.296Z,4.32
2023-04-04T04:38:55.355Z,3.55
2023-04-04T04:41:23.800Z,4.43
2023-04-04T04:43:53.642Z,5.10
2023-04-04T04:46:24.848Z,4.45
2023-04-04T04:48:53.656Z,4.28
2023-04-04T04:51:27.456Z,3.45
2023-04-04T04:53:59.505Z,3.83
2023-04-04T04:56:29.025Z,3.15
2023-04-04T04:59:07.150Z,2.28
2023-04-04T05:01:35.620Z,2.13
2023-04-04T05:04:03.941Z,2.97
2023-04-04T05:06:40.084Z,2.50
2023-04-04T05:09:12.078Z,3.15
2023-04-04T05:11:40.240Z,3.50
2023-04-04T05:14:10.576Z,3.50
2023-04-04T05:16:48.694Z,3.97
2023-04-04T05:19:18.188Z,5.20
2023-04-04T05:21:51.294Z,6.03
2023-04-04T05:24:31.626Z,5.75
2023-04-04T05:27:01.966Z,7.40
2023-04-04T05:29:36.675Z,7.95
2023-04-04T05:32:06.274Z,7.55
2023-04-04T05:34:37.201Z,7.40
2023-04-04T05:37:10.818Z,8.00
2023-04-04T05:39:42.427Z,5.03
2023-04-04T05:42:13.022Z,5.10
2023-04-04T05:44:47.841Z,4.68
2023-04-04T05:47:16.841Z,4.57
2023-04-04T05:49:49.006Z,4.28
2023-04-04T05:52:18.773Z,4.22
2023-04-04T05:54:49.410Z,3.90
2023-04-04T05:57:26.847Z,4.25
2023-04-04T05:59:58.735Z,3.47
2023-04-04T06:02:28.338Z,3.80
2023-04-04T06:05:02.293Z,3.60
2023-04-04T06:07:34.907Z,4.07
2023-04-04T06:10:06.047Z,3.78
2023-04-04T06:12:37.268Z,3.92
2023-04-04T06:15:11.222Z,4.07
2023-04-04T06:17:41.887Z,3.97
2023-04-04T06:20:12.840Z,4.75
2023-04-04T06:22:42.888Z,4.00
2023-04-04T06:25:14.882Z,4.60
2023-04-04T06:27:45.432Z,3.92
2023-04-04T06:30:17.658Z,4.20
2023-04-04T06:32:50.976Z,4.65
2023-04-04T06:35:22.101Z,3.58
2023-04-04T06:37:58.483Z,3.95
2023-04-04T06:40:29.400Z,4.47
2023-04-04T06:42:58.920Z,4.53
2023-04-04T06:45:36.024Z,4.18
2023-04-04T06:48:11.534Z,3.80
2023-04-04T06:50:42.649Z,4.93
2023-04-04T06:53:15.101Z,4.20
2023-04-04T06:55:44.581Z,4.30
2023-04-04T06:58:12.760Z,4.45
2023-04-04T07:00:41.648Z,4.65
2023-04-04T07:03:09.946Z,4.55
2023-04-04T07:05:41.468Z,4.60
2023-04-04T07:08:09.868Z,4.15
2023-04-04T07:10:39.866Z,4.95
2023-04-04T07:13:11.288Z,5.05
2023-04-04T07:15:39.421Z,4.82
2023-04-04T07:18:07.818Z,4.53
2023-04-04T07:20:35.961Z,5.43
2023-04-04T07:23:11.400Z,4.15
2023-04-04T07:25:53.770Z,4.53
2023-04-04T07:28:32.758Z,4.97
2023-04-04T07:31:18.950Z,4.70
2023-04-04T07:34:19.578Z,4.90
2023-04-04T07:37:18.854Z,4.03
2023-04-04T07:40:41.869Z,4.38
2023-04-04T07:46:40.092Z,4.20
2023-04-04T07:49:08.875Z,3.60
2023-04-04T07:51:37.065Z,5.07
2023-04-04T07:54:05.397Z,4.07
2023-04-04T07:56:33.544Z,4.15
2023-04-04T07:59:03.303Z,4.03
2023-04-04T08:01:31.962Z,4.00
2023-04-04T08:04:00.581Z,4.20
2023-04-04T08:06:28.933Z,4.20
2023-04-04T08:08:57.312Z,4.72
2023-04-04T08:11:25.437Z,4.28
2023-04-04T08:13:53.710Z,3.17
2023-04-04T08:16:23.903Z,4.10
2023-04-04T08:18:52.721Z,4.60
2023-04-04T08:21:20.828Z,4.93
2023-04-04T08:23:55.319Z,4.10
2023-04-04T08:26:31.178Z,4.43
2023-04-04T08:29:03.927Z,3.28
2023-04-04T08:31:39.262Z,3.90
2023-04-04T08:34:13.386Z,4.15
2023-04-04T08:36:49.241Z,4.32
2023-04-04T08:39:21.315Z,4.10
2023-04-04T08:42:03.494Z,4.15
2023-04-04T08:45:09.186Z,4.28
2023-04-04T08:48:33.996Z,4.07
2023-04-04T08:58:44.090Z,4.40
2023-04-04T09:01:17.576Z,4.55
2023-04-04T09:03:50.988Z,3.35
2023-04-04T09:06:22.245Z,3.55
2023-04-04T09:08:54.944Z,3.70
2023-04-04T09:23:38.187Z,3.25
2023-04-04T09:34:30.790Z,3.88
2023-04-04T09:37:03.719Z,3.38
2023-04-04T09:39:35.893Z,4.10
2023-04-04T09:42:12.825Z,4.20
2023-04-04T09:44:45.737Z,3.75
2023-04-04T09:47:31.150Z,3.90
2023-04-04T09:50:05.228Z,3.60
2023-04-04T10:04:36.582Z,3.45
2023-04-04T10:07:06.401Z,3.47
2023-04-04T10:21:37.417Z,3.88
2023-04-04T10:25:08.256Z,3.90
2023-04-04T11:18:30.600Z,3.78
2023-04-04T11:21:03.336Z,3.83
2023-04-04T11:24:00.463Z,4.03
2023-04-04T11:26:37.719Z,5.03
2023-04-04T11:29:08.216Z,3.80
2023-04-04T11:31:42.308Z,4.20
2023-04-04T11:34:13.418Z,3.28
2023-04-04T11:36:53.199Z,4.18
2023-04-04T11:39:28.682Z,4.00
2023-04-04T11:41:59.086Z,3.60
2023-04-04T11:44:30.616Z,4.35
2023-04-04T11:47:05.347Z,3.95
2023-04-04T11:49:38.524Z,3.83
2023-04-04T11:52:09.001Z,4.13
2023-04-04T11:54:38.119Z,4.20
2023-04-04T11:57:07.937Z,3.42
2023-04-04T11:59:41.785Z,4.05
2023-04-04T12:02:11.383Z,4.13
2023-04-04T12:04:44.579Z,3.55
2023-04-04T12:07:14.297Z,4.45
2023-04-04T12:09:42.930Z,3.97
2023-04-04T12:12:14.455Z,3.80
2023-04-04T12:14:43.096Z,4.68
2023-04-04T12:17:11.680Z,3.55
2023-04-04T12:19:42.215Z,4.30
2023-04-04T12:22:10.947Z,3.30
2023-04-04T12:24:39.433Z,4.35
2023-04-04T12:27:07.837Z,4.00
2023-04-04T12:29:37.850Z,4.32
2023-04-04T12:32:09.159Z,3.95
2023-04-04T12:34:48.672Z,4.13
2023-04-04T12:37:19.545Z,3.70
2023-04-04T12:39:50.166Z,4.43
2023-04-04T12:42:22.656Z,3.85
2023-04-04T12:44:52.476Z,4.18
2023-04-04T12:47:22.552Z,4.00
2023-04-04T12:49:54.768Z,4.45
2023-04-04T12:52:24.636Z,3.65
2023-04-04T12:55:06.770Z,4.30
2023-04-04T12:57:36.800Z,3.80
2023-04-04T13:00:08.576Z,4.63
2023-04-04T13:02:39.173Z,3.88
2023-04-04T13:05:11.291Z,3.70
2023-04-04T13:07:43.622Z,3.80
2023-04-04T13:10:14.955Z,3.85
2023-04-04T13:12:58.930Z,3.35
2023-04-04T13:15:49.611Z,3.92
2023-04-04T13:18:21.228Z,4.50
2023-04-04T13:20:51.409Z,4.32
2023-04-04T13:23:22.393Z,4.90
2023-04-04T13:25:51.400Z,4.20
2023-04-04T13:28:19.457Z,3.67
2023-04-04T13:30:49.703Z,4.70
2023-04-04T13:33:18.264Z,3.92
2023-04-04T13:35:47.328Z,4.35
2023-04-04T13:38:17.783Z,4.32
2023-04-04T13:40:46.805Z,3.67
2023-04-04T13:43:15.284Z,3.90
2023-04-04T13:45:44.071Z,4.30
2023-04-04T13:48:13.278Z,3.58
2023-04-04T13:50:44.054Z,5.32
2023-04-04T13:53:12.651Z,4.50
2023-04-04T13:56:01.407Z,4.18
2023-04-04T13:58:30.289Z,5.00
2023-04-04T14:00:58.633Z,4.22
2023-04-04T14:03:27.198Z,4.35
2023-04-04T14:05:55.361Z,5.10
2023-04-04T14:08:23.623Z,3.72
2023-04-04T14:10:53.748Z,4.57
2023-04-04T14:13:22.086Z,4.35
2023-04-04T14:15:50.840Z,4.43
2023-04-04T14:18:19.097Z,4.35
2023-04-04T14:20:47.926Z,4.63
2023-04-04T14:23:16.262Z,5.05
2023-04-04T14:25:44.451Z,4.57
2023-04-04T14:28:13.905Z,3.70
2023-04-04T14:30:42.474Z,4.53
2023-04-04T14:33:11.129Z,5.05
2023-04-04T14:35:39.576Z,5.57
2023-04-04T14:38:08.003Z,5.55
2023-04-04T14:40:36.502Z,5.13
2023-04-04T14:43:04.618Z,5.28
2023-04-04T14:45:34.221Z,5.07
2023-04-04T14:48:02.457Z,5.00
2023-04-04T14:50:30.759Z,5.20
2023-04-04T14:52:59.000Z,4.88
2023-04-04T14:55:27.259Z,5.10
2023-04-04T15:00:26.707Z,5.20
2023-04-04T15:02:56.713Z,5.82
2023-04-04T15:05:26.292Z,5.28
2023-04-04T15:07:55.845Z,5.40
2023-04-04T15:10:24.224Z,5.13
2023-04-04T15:12:52.744Z,5.25
2023-04-04T15:15:22.385Z,4.63
2023-04-04T15:17:52.383Z,4.88
2023-04-04T15:20:23.139Z,4.70
2023-04-04T15:22:51.369Z,4.32
2023-04-04T15:25:19.481Z,5.05
2023-04-04T15:27:47.742Z,5.32
2023-04-04T15:30:16.471Z,4.50
2023-04-04T15:32:44.660Z,4.88
2023-04-04T15:35:17.883Z,4.97
2023-04-04T15:37:49.238Z,5.35
2023-04-04T15:40:18.101Z,4.97
2023-04-04T15:42:46.819Z,4.50
2023-04-04T15:45:15.337Z,5.18
2023-04-04T15:47:45.065Z,3.60
2023-04-04T15:50:13.520Z,4.75
2023-04-04T15:52:41.979Z,4.60
2023-04-04T15:55:14.726Z,4.25
2023-04-04T15:57:44.737Z,5.05
2023-04-04T16:00:15.113Z,5.20
2023-04-04T16:02:43.684Z,5.88
2023-04-04T16:05:11.987Z,4.55
2023-04-04T16:07:40.187Z,4.28
2023-04-04T16:10:09.545Z,4.30
2023-04-04T16:12:39.004Z,5.28
2023-04-04T16:15:08.856Z,4.03
2023-04-04T16:17:37.003Z,5.03
2023-04-04T16:20:07.391Z,4.40
2023-04-04T16:22:35.936Z,4.80
2023-04-04T16:25:04.083Z,4.70
2023-04-04T16:27:32.261Z,5.10
2023-04-04T16:30:02.316Z,4.75
2023-04-04T16:32:31.767Z,4.28
2023-04-04T16:34:59.996Z,5.00
2023-04-04T16:37:28.114Z,5.25
2023-04-04T16:39:59.703Z,4.65
2023-04-04T16:42:27.782Z,4.53
2023-04-04T16:44:56.096Z,4.97
2023-04-04T16:47:26.824Z,4.85
2023-04-04T16:49:56.404Z,4.95
2023-04-04T16:52:24.671Z,4.25
2023-04-04T16:54:54.420Z,5.25
2023-04-04T16:57:22.509Z,4.70
2023-04-04T16:59:50.654Z,5.47
2023-04-04T17:02:19.109Z,5.32
2023-04-04T17:04:48.501Z,4.88
2023-04-04T17:07:16.913Z,5.20
2023-04-04T17:09:47.074Z,5.47
2023-04-04T17:12:16.386Z,4.47
2023-04-04T17:14:45.480Z,4.20
2023-04-04T17:17:13.599Z,6.80
2023-04-04T17:19:42.022Z,6.40
2023-04-04T17:22:11.562Z,5.43
2023-04-04T17:24:39.660Z,5.47
2023-04-04T17:27:08.243Z,4.82
2023-04-04T17:29:36.802Z,5.13
2023-04-04T17:32:05.954Z,10.88
2023-04-04T17:34:34.227Z,10.80
2023-04-04T17:37:02.583Z,8.50
2023-04-04T17:39:32.480Z,5.88
2023-04-04T17:42:01.179Z,4.82
2023-04-04T17:44:29.666Z,5.60
2023-04-04T17:46:57.917Z,7.50
2023-04-04T17:49:27.346Z,8.48
2023-04-04T17:51:55.635Z,7.15
2023-04-04T17:54:27.013Z,8.70
2023-04-04T17:56:57.218Z,6.60
2023-04-04T17:59:25.741Z,6.65
2023-04-04T18:01:53.987Z,6.25
2023-04-04T18:04:23.926Z,6.22
2023-04-04T18:06:54.654Z,7.10
2023-04-04T18:09:24.017Z,10.40
2023-04-04T18:11:52.816Z,12.88
2023-04-04T18:14:22.401Z,13.27
2023-04-04T18:16:50.628Z,14.80
2023-04-04T18:19:18.891Z,10.68
2023-04-04T18:21:49.261Z,7.75
2023-04-04T18:24:17.958Z,6.97
2023-04-04T18:26:46.074Z,10.63
2023-04-04T18:29:16.233Z,10.30
2023-04-04T18:31:46.034Z,10.20
2023-04-04T18:34:15.293Z,7.72
2023-04-04T18:36:43.477Z,15.15
2023-04-04T18:39:11.644Z,14.05
2023-04-04T18:41:40.093Z,9.40
2023-04-04T18:44:13.214Z,6.68
2023-04-04T18:46:47.358Z,8.27
2023-04-04T18:49:25.942Z,7.05
2023-04-04T18:51:59.898Z,8.32
2023-04-04T18:54:31.093Z,14.02
2023-04-04T18:57:02.586Z,9.10
2023-04-04T18:59:37.814Z,12.90
2023-04-04T19:02:11.129Z,12.48
2023-04-04T19:04:47.990Z,13.57
2023-04-04T19:07:23.637Z,12.25
2023-04-04T19:09:59.391Z,14.93
2023-04-04T19:12:32.263Z,9.27
2023-04-04T19:15:07.574Z,7.78
2023-04-04T19:17:38.527Z,8.68
2023-04-04T19:20:12.616Z,7.93
2023-04-04T19:22:44.063Z,7.30
2023-04-04T19:25:15.984Z,7.40
2023-04-04T19:27:46.618Z,7.22
2023-04-04T19:30:44.215Z,7.03
2023-04-04T19:33:20.291Z,6.50
2023-04-04T19:36:00.920Z,6.47
2023-04-04T19:38:37.639Z,7.47
2023-04-04T19:41:18.521Z,5.80
2023-04-04T19:43:54.381Z,6.15
2023-04-04T19:46:31.673Z,5.88
2023-04-04T19:49:07.678Z,5.90
2023-04-04T19:52:00.032Z,5.57
2023-04-04T19:54:40.240Z,6.30
2023-04-04T19:57:19.713Z,6.70
2023-04-04T20:00:01.863Z,6.25
2023-04-04T20:02:57.764Z,7.60
2023-04-04T20:06:00.236Z,8.60
2023-04-04T20:08:36.768Z,9.80
2023-04-04T20:11:07.888Z,9.65
2023-04-04T20:13:37.446Z,10.95
2023-04-04T20:16:08.843Z,9.73
2023-04-04T20:18:39.146Z,9.40
2023-04-04T20:21:10.241Z,9.55
2023-04-04T20:23:44.149Z,9.18
2023-04-04T20:26:14.743Z,9.35
2023-04-04T20:28:47.368Z,9.05
2023-04-04T20:31:18.596Z,8.25
2023-04-04T20:33:47.281Z,7.13
2023-04-04T20:36:33.628Z,7.40
2023-04-04T20:39:03.125Z,7.15
2023-04-04T20:41:31.373Z,6.57
2023-04-04T20:44:01.162Z,6.93
2023-04-04T20:46:32.924Z,6.43
2023-04-04T20:49:01.062Z,5.80
2023-04-04T20:51:31.616Z,6.10
2023-04-04T20:54:01.241Z,6.28
2023-04-04T20:56:55.549Z,6.70
2023-04-04T20:59:38.311Z,6.38
2023-04-04T21:02:12.536Z,5.68
2023-04-04T21:04:42.759Z,5.15
2023-04-04T21:07:36.198Z,6.35
2023-04-04T21:10:21.534Z,5.60
2023-04-04T21:12:51.410Z,6.28
2023-04-04T21:15:23.836Z,6.55
2023-04-04T21:17:52.122Z,5.82
2023-04-04T21:20:54.091Z,5.60
2023-04-04T21:23:32.310Z,6.15
2023-04-04T21:26:02.426Z,6.32
2023-04-04T21:28:39.911Z,7.40
2023-04-04T21:31:13.570Z,5.90
2023-04-04T21:33:43.389Z,6.40
2023-04-04T21:36:18.469Z,5.90
2023-04-04T21:38:46.833Z,6.13
2023-04-04T21:41:23.749Z,6.57
2023-04-04T21:43:53.920Z,7.15
2023-04-04T21:46:24.518Z,6.55
2023-04-04T21:48:53.125Z,6.55
2023-04-04T21:51:21.298Z,7.18
2023-04-04T21:53:50.266Z,7.15
2023-04-04T21:56:19.471Z,6.50
2023-04-04T21:58:47.740Z,6.95
2023-04-04T22:01:17.320Z,6.32
2023-04-04T22:03:45.448Z,7.50
2023-04-04T22:06:13.527Z,8.07
2023-04-04T22:08:44.925Z,7.85
2023-04-04T22:11:19.361Z,7.85
2023-04-04T22:13:51.169Z,7.35
2023-04-04T22:16:26.585Z,7.85
2023-04-04T22:18:57.073Z,7.80
2023-04-04T22:21:28.721Z,6.28
2023-04-04T22:24:01.502Z,7.32
2023-04-04T22:26:32.788Z,6.65
2023-04-04T22:29:04.577Z,9.98
2023-04-04T22:31:38.025Z,8.85
2023-04-04T22:34:07.346Z,8.70
2023-04-04T22:36:39.696Z,8.88
2023-04-04T22:39:09.120Z,7.88
2023-04-04T22:41:38.717Z,7.03
2023-04-04T22:44:08.327Z,9.50
2023-04-04T22:46:40.235Z,8.90
2023-04-04T22:49:09.777Z,9.30
2023-04-04T22:51:43.710Z,8.18
2023-04-04T22:54:14.747Z,8.43
2023-04-04T22:56:44.743Z,10.00
2023-04-04T22:59:14.682Z,9.25
2023-04-04T23:01:45.318Z,8.35
2023-04-04T23:04:15.042Z,8.80
2023-04-04T23:06:45.815Z,8.35
2023-04-04T23:09:15.636Z,7.80
2023-04-04T23:11:44.924Z,7.88
2023-04-04T23:14:14.836Z,8.32
2023-04-04T23:16:45.763Z,8.70
2023-04-04T23:19:14.570Z,9.00
2023-04-04T23:21:44.328Z,8.40
2023-04-04T23:24:13.620Z,8.50
2023-04-04T23:26:42.137Z,7.45
2023-04-04T23:29:10.242Z,9.23
2023-04-04T23:31:38.829Z,8.07
2023-04-04T23:34:09.356Z,8.45
2023-04-04T23:36:38.042Z,9.38
2023-04-04T23:39:06.406Z,8.95
2023-04-04T23:41:35.916Z,9.63
2023-04-04T23:44:04.556Z,9.20
2023-04-04T23:46:35.265Z,9.00
2023-04-04T23:49:04.412Z,8.35
2023-04-04T23:51:38.461Z,9.30
2023-04-04T23:54:08.245Z,9.35
2023-04-04T23:56:37.582Z,8.07
2023-04-04T23:59:06.734Z,8.15
